Time;durP1;ratioP1;P1;durP2;ratioP2;P2;SDS_P1;SDS_P2;PMS_P1;PMS_P2;Temp;Humidity;BMP_temperature;BMP_pressure;BME280_temperature;BME280_humidity;BME280_pressure;Samples;Min_cycle;Max_cycle;Signal;HPM_P1;HPM_P2
2022/04/26 03:37:12;;;;;;;24.73;12.13;;;6.40;99.90;;;;;;5036865;28;20112;-63
2022/04/26 03:39:38;;;;;;;20.08;12.18;;;6.40;99.90;;;;;;5036214;28;20021;-63
2022/04/26 03:42:04;;;;;;;21.30;11.82;;;6.40;99.90;;;;;;5036136;28;20180;-61
2022/04/26 03:44:30;;;;;;;25.90;12.32;;;6.40;99.90;;;;;;5036124;28;20055;-62
2022/04/26 03:46:56;;;;;;;21.88;12.20;;;6.30;99.90;;;;;;5034965;28;20021;-62
2022/04/26 03:49:23;;;;;;;21.75;13.43;;;6.30;99.90;;;;;;5035675;28;20026;-62
2022/04/26 03:51:48;;;;;;;23.60;12.63;;;6.30;99.90;;;;;;5035712;28;20057;-64
2022/04/26 03:54:14;;;;;;;25.92;12.13;;;6.30;99.90;;;;;;5034815;28;20096;-61
2022/04/26 03:56:39;;;;;;;22.52;13.20;;;6.40;99.90;;;;;;5035948;28;20375;-64
2022/04/26 03:59:05;;;;;;;24.90;13.00;;;6.40;99.90;;;;;;5035730;28;20021;-61
2022/04/26 04:01:31;;;;;;;22.30;13.70;;;6.30;99.90;;;;;;5035740;28;20069;-65
2022/04/26 04:03:57;;;;;;;21.70;12.45;;;6.30;99.90;;;;;;5035756;28;20051;-64
2022/04/26 04:06:23;;;;;;;23.70;13.60;;;6.30;99.90;;;;;;5035570;28;20045;-65
2022/04/26 04:08:48;;;;;;;24.85;13.05;;;6.30;99.90;;;;;;5035322;28;20112;-62
2022/04/26 04:11:14;;;;;;;24.25;13.63;;;6.20;99.90;;;;;;5034262;28;20025;-64
2022/04/26 04:13:40;;;;;;;22.77;13.68;;;6.30;99.90;;;;;;5035455;28;20029;-63
2022/04/26 04:16:05;;;;;;;22.20;13.07;;;6.30;99.90;;;;;;5035575;28;20026;-62
2022/04/26 04:21:15;;;;;;;23.75;13.48;;;6.30;99.90;;;;;;5037183;28;20504;-62
2022/04/26 04:23:41;;;;;;;22.52;13.38;;;6.30;99.90;;;;;;5039758;28;20029;-63
2022/04/26 04:26:07;;;;;;;24.08;13.40;;;6.30;99.90;;;;;;5039466;28;20022;-64
2022/04/26 04:28:34;;;;;;;25.77;14.43;;;6.30;99.90;;;;;;5039922;28;20018;-64
2022/04/26 04:31:00;;;;;;;25.23;13.98;;;6.30;99.90;;;;;;5039176;28;20021;-64
2022/04/26 04:33:26;;;;;;;24.45;13.80;;;6.30;99.90;;;;;;5037789;28;20022;-64
2022/04/26 04:35:52;;;;;;;25.33;14.40;;;6.40;99.90;;;;;;5036958;28;20033;-64
2022/04/26 04:38:17;;;;;;;24.33;13.60;;;6.40;99.90;;;;;;5036992;28;20036;-64
2022/04/26 04:40:43;;;;;;;22.88;13.43;;;6.40;99.90;;;;;;5035175;28;20033;-65
2022/04/26 04:43:11;;;;;;;25.30;13.57;;;6.50;99.90;;;;;;5036235;28;20040;-65
2022/04/26 04:45:37;;;;;;;26.77;13.98;;;6.60;99.90;;;;;;5035363;28;20013;-63
2022/04/26 04:48:05;;;;;;;23.98;14.35;;;6.70;99.90;;;;;;5034661;28;20025;-63
2022/04/26 04:50:33;;;;;;;24.95;15.25;;;6.80;99.90;;;;;;5033337;28;20092;-61
2022/04/26 04:52:59;;;;;;;22.63;14.00;;;6.90;99.90;;;;;;5034638;28;20198;-64
2022/04/26 04:55:25;;;;;;;25.67;14.48;;;7.00;99.90;;;;;;5034106;28;20032;-64
2022/04/26 04:57:51;;;;;;;25.13;13.85;;;7.10;99.90;;;;;;5035419;28;20235;-64
2022/04/26 05:00:17;;;;;;;22.25;13.18;;;7.10;99.90;;;;;;5033471;28;20048;-63
2022/04/26 05:02:42;;;;;;;26.40;14.45;;;7.10;99.90;;;;;;5034497;28;20044;-63
2022/04/26 05:05:09;;;;;;;24.27;15.00;;;7.00;99.90;;;;;;5034374;28;20017;-62
2022/04/26 05:07:36;;;;;;;26.65;14.32;;;6.90;99.90;;;;;;5033531;28;20071;-64
2022/04/26 05:10:01;;;;;;;26.70;15.95;;;6.90;99.90;;;;;;5034123;28;20025;-64
2022/04/26 05:12:27;;;;;;;22.25;13.55;;;6.90;99.90;;;;;;5034340;28;20021;-63
2022/04/26 05:14:52;;;;;;;25.73;14.63;;;6.90;99.90;;;;;;5034446;28;20071;-65
2022/04/26 05:17:18;;;;;;;26.80;15.00;;;6.90;99.90;;;;;;5034361;28;20025;-64
2022/04/26 05:19:44;;;;;;;25.20;15.25;;;7.00;99.90;;;;;;5034172;28;20029;-63
2022/04/26 05:22:10;;;;;;;23.65;15.05;;;7.00;99.90;;;;;;5034183;28;20030;-62
2022/04/26 05:24:56;;;;;;;26.80;15.75;;;7.10;99.90;;;;;;5033209;28;20026;-62
2022/04/26 05:27:22;;;;;;;26.63;15.05;;;7.20;99.90;;;;;;5034097;28;20100;-64
2022/04/26 05:29:48;;;;;;;27.80;14.98;;;7.20;99.90;;;;;;5033972;28;20113;-63
2022/04/26 05:32:28;;;;;;;27.20;15.18;;;7.30;99.90;;;;;;5032139;28;20084;-65
2022/04/26 05:34:59;;;;;;;26.85;15.20;;;7.30;99.90;;;;;;5033750;28;20081;-65
2022/04/26 05:37:25;;;;;;;24.45;14.65;;;7.40;99.90;;;;;;5033839;28;20078;-63
2022/04/26 05:39:51;;;;;;;23.85;13.50;;;7.50;99.90;;;;;;5033470;28;20033;-63
2022/04/26 05:42:16;;;;;;;31.42;16.38;;;7.50;99.90;;;;;;5032347;28;20029;-64
2022/04/26 05:44:42;;;;;;;25.90;16.63;;;7.60;99.90;;;;;;5033519;28;20108;-66
2022/04/26 05:47:09;;;;;;;25.05;14.45;;;7.60;99.90;;;;;;5033130;28;20105;-65
2022/04/26 05:49:34;;;;;;;34.53;15.60;;;7.60;99.90;;;;;;5033274;28;20036;-66
2022/04/26 05:52:01;;;;;;;30.88;16.05;;;7.70;99.90;;;;;;5061613;23;20037;-61
2022/04/26 05:54:27;;;;;;;25.55;15.63;;;7.70;99.90;;;;;;5077170;28;20028;-64
2022/04/26 05:56:54;;;;;;;25.05;14.10;;;7.80;99.90;;;;;;5076300;28;20021;-63
2022/04/26 05:59:20;;;;;;;27.02;14.65;;;7.80;99.90;;;;;;5076078;28;20477;-64
2022/04/26 06:01:46;;;;;;;26.95;15.57;;;7.80;99.90;;;;;;5077549;28;20040;-63
2022/04/26 06:04:12;;;;;;;24.45;14.50;;;7.90;99.90;;;;;;5076441;28;20021;-64
2022/04/26 06:06:38;;;;;;;24.63;14.88;;;8.00;99.90;;;;;;5076398;28;20021;-64
2022/04/26 06:09:04;;;;;;;27.45;13.90;;;8.00;99.90;;;;;;5078513;28;20021;-62
2022/04/26 06:11:31;;;;;;;29.05;15.20;;;8.10;99.90;;;;;;5077309;28;20666;-64
2022/04/26 06:13:57;;;;;;;27.15;18.65;;;8.10;99.90;;;;;;5078131;28;20094;-65
2022/04/26 06:16:22;;;;;;;28.33;15.88;;;8.20;99.90;;;;;;5078838;28;20032;-62
2022/04/26 06:18:48;;;;;;;26.63;15.85;;;8.30;99.90;;;;;;5077625;28;20068;-64
2022/04/26 06:21:14;;;;;;;23.75;14.73;;;8.40;99.90;;;;;;5075078;28;20024;-63
2022/04/26 06:23:40;;;;;;;26.50;15.35;;;8.50;99.90;;;;;;5075768;28;20028;-64
2022/04/26 06:26:06;;;;;;;23.45;14.27;;;8.50;99.90;;;;;;5076704;28;20032;-65
2022/04/26 06:28:32;;;;;;;25.10;14.30;;;8.50;99.90;;;;;;5075777;28;20025;-65
2022/04/26 06:30:58;;;;;;;23.90;14.13;;;8.60;99.90;;;;;;5075852;28;20029;-64
2022/04/26 06:33:24;;;;;;;24.88;15.18;;;8.60;99.90;;;;;;5077274;28;20031;-65
2022/04/26 06:35:49;;;;;;;23.08;14.32;;;8.70;99.90;;;;;;5075409;28;20029;-64
2022/04/26 06:38:18;;;;;;;23.33;14.35;;;8.70;99.90;;;;;;5076042;28;20028;-63
2022/04/26 06:40:46;;;;;;;25.85;14.10;;;8.80;99.90;;;;;;5076570;28;20493;-66
2022/04/26 06:43:12;;;;;;;26.27;14.82;;;8.90;99.90;;;;;;5074976;28;20028;-65
2022/04/26 06:45:38;;;;;;;24.40;14.50;;;8.90;99.90;;;;;;5075140;28;20035;-65
2022/04/26 06:48:08;;;;;;;25.85;15.52;;;9.00;99.90;;;;;;5076555;28;20017;-62
2022/04/26 06:50:34;;;;;;;25.63;14.68;;;9.10;99.90;;;;;;5075712;28;20381;-62
2022/04/26 06:53:00;;;;;;;25.20;14.85;;;9.20;99.90;;;;;;5075473;28;20123;-63
2022/04/26 06:55:25;;;;;;;27.48;14.93;;;9.30;99.90;;;;;;5075814;28;20052;-64
2022/04/26 06:57:51;;;;;;;35.25;20.08;;;9.40;99.90;;;;;;5075735;28;20024;-63
2022/04/26 07:00:17;;;;;;;27.38;17.23;;;9.60;99.90;;;;;;5075204;28;20043;-63
2022/04/26 07:02:43;;;;;;;26.90;14.05;;;9.60;99.90;;;;;;5074993;28;20024;-63
2022/04/26 07:05:11;;;;;;;24.17;13.77;;;9.60;99.90;;;;;;5072254;28;20111;-64
2022/04/26 07:07:38;;;;;;;26.30;14.57;;;9.50;99.90;;;;;;5072244;28;20031;-62
2022/04/26 07:10:05;;;;;;;24.55;15.10;;;9.60;99.90;;;;;;5072950;28;20031;-63
2022/04/26 07:12:31;;;;;;;26.58;15.60;;;9.60;99.90;;;;;;5071821;28;20139;-63
2022/04/26 07:14:57;;;;;;;25.67;14.75;;;9.70;99.90;;;;;;5074810;28;20021;-63
2022/04/26 07:17:23;;;;;;;26.08;14.40;;;9.80;99.90;;;;;;5075136;28;20034;-61
2022/04/26 07:19:49;;;;;;;25.42;14.27;;;9.80;99.90;;;;;;5076314;28;20387;-64
2022/04/26 07:22:14;;;;;;;25.02;14.07;;;9.90;99.90;;;;;;5074508;28;20078;-64
2022/04/26 07:24:40;;;;;;;29.65;14.57;;;10.00;99.90;;;;;;5075089;28;20495;-64
2022/04/26 07:27:06;;;;;;;23.90;14.73;;;10.00;99.90;;;;;;5076074;28;20016;-63
2022/04/26 07:29:31;;;;;;;27.10;14.57;;;10.10;99.90;;;;;;5076361;28;20029;-64
2022/04/26 07:31:57;;;;;;;25.83;15.15;;;10.00;99.90;;;;;;5075404;28;20030;-64
2022/04/26 07:34:24;;;;;;;27.35;14.43;;;10.00;99.90;;;;;;5076159;28;20035;-63
2022/04/26 07:36:52;;;;;;;25.92;15.00;;;10.10;99.90;;;;;;5075172;28;20036;-64
2022/04/26 07:39:18;;;;;;;24.33;14.18;;;10.20;99.90;;;;;;5075480;28;20099;-65
2022/04/26 07:41:50;;;;;;;25.17;14.50;;;10.10;99.90;;;;;;5075558;28;20502;-64
2022/04/26 07:44:16;;;;;;;28.20;15.30;;;10.20;99.90;;;;;;5076131;28;20489;-65
2022/04/26 07:46:46;;;;;;;28.38;16.58;;;10.20;99.90;;;;;;5075696;28;20496;-64
2022/04/26 07:49:13;;;;;;;28.17;14.35;;;10.20;99.90;;;;;;5075906;28;20059;-64
2022/04/26 07:51:40;;;;;;;25.20;13.82;;;10.30;99.90;;;;;;5076123;28;20036;-64
2022/04/26 07:54:06;;;;;;;25.60;14.77;;;10.20;99.90;;;;;;5077363;28;20024;-65
2022/04/26 07:56:32;;;;;;;28.20;15.02;;;10.30;99.90;;;;;;5080323;28;20024;-64
2022/04/26 07:58:59;;;;;;;25.73;15.23;;;10.30;99.90;;;;;;5080222;28;20027;-65
2022/04/26 08:01:26;;;;;;;24.17;14.45;;;10.30;99.90;;;;;;5079832;28;20426;-64
2022/04/26 08:03:52;;;;;;;29.85;18.80;;;10.30;99.90;;;;;;5078873;28;20460;-67
2022/04/26 08:06:18;;;;;;;26.27;14.85;;;10.30;99.90;;;;;;5078635;28;20025;-66
2022/04/26 08:08:44;;;;;;;25.98;15.18;;;10.30;99.90;;;;;;5079561;28;20081;-63
2022/04/26 08:11:12;;;;;;;26.75;15.35;;;10.40;99.90;;;;;;5079942;28;20401;-63
2022/04/26 08:13:40;;;;;;;25.75;14.95;;;;;;;;;;5078163;28;20029;-64
2022/04/26 08:16:06;;;;;;;25.95;15.70;;;;;;;;;;5080272;28;20413;-64
2022/04/26 08:18:31;;;;;;;28.98;15.73;;;10.50;99.90;;;;;;5079588;28;20039;-65
2022/04/26 08:20:57;;;;;;;25.67;15.77;;;10.80;99.90;;;;;;5080367;28;20116;-65
2022/04/26 08:23:23;;;;;;;27.42;15.13;;;10.80;99.90;;;;;;5075384;28;20132;-65
2022/04/26 08:28:33;;;;;;;26.83;16.13;;;11.00;99.90;;;;;;5073477;28;20094;-66
2022/04/26 08:31:00;;;;;;;25.42;14.27;;;11.20;99.90;;;;;;5073085;28;20021;-65
2022/04/26 08:33:27;;;;;;;26.17;14.95;;;11.40;99.90;;;;;;5072914;28;20442;-64
2022/04/26 08:35:53;;;;;;;25.70;15.65;;;11.50;99.90;;;;;;5072971;28;20702;-65
2022/04/26 08:38:19;;;;;;;25.30;15.23;;;11.60;99.90;;;;;;5071654;28;20029;-66
2022/04/26 08:40:45;;;;;;;25.90;15.88;;;11.80;99.90;;;;;;5072803;28;20043;-66
2022/04/26 08:43:11;;;;;;;25.90;15.05;;;12.00;99.90;;;;;;5072910;28;20021;-64
2022/04/26 08:45:41;;;;;;;25.88;15.38;;;12.00;99.90;;;;;;5071371;28;20439;-65
2022/04/26 08:51:05;;;;;;;24.23;14.50;;;12.40;99.90;;;;;;5066776;28;20045;-62
2022/04/26 08:53:34;;;;;;;;;;;12.40;99.90;;;;;;5064598;28;20163;-62
2022/04/26 08:56:06;;;;;;;26.63;15.23;;;12.50;99.90;;;;;;5050662;28;19915;-61
2022/04/26 08:58:33;;;;;;;23.73;15.38;;;12.60;99.90;;;;;;5068715;28;20052;-61
2022/04/26 09:01:03;;;;;;;25.73;16.40;;;;;;;;;;5071578;28;20032;-62
2022/04/26 09:03:30;;;;;;;24.20;14.52;;;12.80;99.90;;;;;;5071152;28;20408;-62
2022/04/26 09:06:07;;;;;;;25.92;15.90;;;12.90;99.90;;;;;;5070713;28;20017;-63
2022/04/26 09:08:34;;;;;;;26.63;14.52;;;13.00;99.90;;;;;;5070413;28;20513;-64
2022/04/26 09:11:00;;;;;;;61.05;50.13;;;;;;;;;;5060371;28;20025;-66
2022/04/26 09:13:26;;;;;;;30.55;18.10;;;13.30;99.90;;;;;;5061086;28;20029;-65
2022/04/26 09:15:55;;;;;;;27.67;17.73;;;13.50;99.90;;;;;;5049814;28;20053;-66
2022/04/26 09:18:21;;;;;;;;;;;13.60;99.90;;;;;;5058163;28;20107;-63
2022/04/26 09:21:11;;;;;;;25.48;15.07;;;13.60;99.90;;;;;;5067900;28;19998;-64
2022/04/26 09:23:39;;;;;;;24.67;15.90;;;13.70;99.90;;;;;;5069242;28;20027;-66
2022/04/26 09:26:11;;;;;;;23.15;14.75;;;13.70;99.90;;;;;;5067904;28;20020;-65
2022/04/26 09:28:38;;;;;;;28.05;16.02;;;;;;;;;;5049209;28;20529;-63
2022/04/26 09:31:24;;;;;;;27.87;17.07;;;;;;;;;;5049204;28;20366;-61
2022/04/26 09:33:53;;;;;;;22.63;14.73;;;;;;;;;;5047864;28;20075;-58
2022/04/26 09:36:24;;;;;;;27.75;15.27;;;13.90;99.90;;;;;;5049176;28;20036;-63
2022/04/26 09:39:00;;;;;;;24.50;15.45;;;14.90;99.90;;;;;;5047569;28;20035;-65
2022/04/26 09:41:27;;;;;;;25.00;15.95;;;;;;;;;;5048900;28;20036;-65
2022/04/26 09:43:57;;;;;;;24.80;15.63;;;;;;;;;;5056277;28;20067;-66
2022/04/26 09:46:23;;;;;;;25.25;16.17;;;15.50;99.90;;;;;;5067414;28;20028;-67
2022/04/26 09:48:52;;;;;;;25.73;15.68;;;14.80;99.90;;;;;;5068948;28;20108;-65
2022/04/26 09:51:17;;;;;;;23.92;15.35;;;14.60;99.90;;;;;;5069187;28;20473;-66
2022/04/26 09:53:44;;;;;;;21.98;14.85;;;14.40;99.90;;;;;;5067668;28;20079;-67
2022/04/26 09:56:13;;;;;;;27.08;15.95;;;14.40;99.90;;;;;;5068866;28;20098;-66
2022/04/26 09:58:42;;;;;;;26.17;17.02;;;14.40;99.90;;;;;;5068965;28;20028;-67
2022/04/26 10:01:08;;;;;;;25.15;16.33;;;14.60;99.90;;;;;;5067195;28;20024;-67
2022/04/26 10:03:40;;;;;;;25.50;14.88;;;14.90;99.90;;;;;;5068095;28;20024;-65
2022/04/26 10:06:07;;;;;;;23.23;15.00;;;15.10;99.90;;;;;;5070655;28;20024;-67
2022/04/26 10:08:35;;;;;;;26.65;16.92;;;14.90;99.90;;;;;;5070813;28;20098;-68
2022/04/26 10:11:02;;;;;;;25.70;17.87;;;15.10;99.90;;;;;;5070232;28;20366;-64
2022/04/26 10:13:42;;;;;;;25.77;17.30;;;15.60;99.90;;;;;;5069975;28;20598;-65
2022/04/26 10:16:19;;;;;;;24.88;16.98;;;;;;;;;;5070582;28;20464;-66
2022/04/26 10:18:47;;;;;;;23.85;16.48;;;16.50;99.90;;;;;;5071439;28;20020;-65
2022/04/26 10:21:30;;;;;;;23.70;16.52;;;17.90;99.90;;;;;;5069760;28;20069;-64
2022/04/26 10:23:56;;;;;;;25.20;17.38;;;17.40;99.90;;;;;;5069947;28;20028;-65
2022/04/26 10:26:26;;;;;;;25.75;17.90;;;17.60;99.90;;;;;;5070880;28;20027;-66
2022/04/26 10:28:57;;;;;;;24.42;17.90;;;17.20;99.90;;;;;;5071330;28;20028;-61
2022/04/26 10:31:45;;;;;;;27.63;19.02;;;16.70;99.90;;;;;;5071111;28;20044;-61
2022/04/26 10:34:31;;;;;;;26.50;18.52;;;16.30;99.90;;;;;;5071731;28;20540;-65
2022/04/26 10:36:59;;;;;;;24.42;16.48;;;;;;;;;;5070404;28;20082;-64
2022/04/26 10:39:25;;;;;;;28.00;17.93;;;;;;;;;;5071377;28;20107;-65
2022/04/26 10:41:53;;;;;;;26.05;17.08;;;16.20;99.90;;;;;;5069932;28;20079;-66
2022/04/26 10:44:22;;;;;;;24.50;16.70;;;16.00;99.90;;;;;;5070390;28;20044;-66
2022/04/26 10:46:55;;;;;;;26.85;18.25;;;16.60;99.90;;;;;;5068246;28;20059;-66
2022/04/26 10:49:23;;;;;;;26.20;17.42;;;16.60;99.90;;;;;;5057991;28;20021;-65
2022/04/26 10:55:04;;;;;;;24.92;16.27;;;16.80;99.90;;;;;;5050778;28;19912;-64
2022/04/26 10:57:30;;;;;;;26.05;15.85;;;17.40;99.90;;;;;;5060201;28;20048;-66
2022/04/26 10:59:59;;;;;;;25.35;16.38;;;17.50;99.90;;;;;;5050624;28;20151;-67
2022/04/26 11:02:28;;;;;;;24.50;17.23;;;17.50;99.90;;;;;;5049101;28;20028;-66
2022/04/26 11:05:00;;;;;;;25.88;17.15;;;17.40;99.90;;;;;;5048816;28;20119;-56
2022/04/26 11:07:27;;;;;;;23.67;16.63;;;17.40;99.90;;;;;;5050238;28;20025;-56
2022/04/26 11:09:54;;;;;;;24.42;16.85;;;17.60;99.90;;;;;;5048346;28;20160;-55
2022/04/26 11:12:28;;;;;;;22.80;16.10;;;17.60;99.90;;;;;;5050162;28;20029;-56
2022/04/26 11:14:59;;;;;;;27.98;18.42;;;17.20;99.90;;;;;;5048790;28;20028;-56
2022/04/26 11:17:25;;;;;;;24.95;17.13;;;16.70;99.90;;;;;;5053107;28;20021;-53
2022/04/26 11:19:55;;;;;;;27.00;18.20;;;;;;;;;;5068698;28;20115;-54
2022/04/26 11:22:22;;;;;;;24.90;17.42;;;16.30;99.90;;;;;;5069728;28;20346;-55
2022/04/26 11:30:36;;;;;;;23.33;15.90;;;18.60;99.90;;;;;;5073536;28;20036;-59
2022/04/26 11:33:07;;;;;;;26.55;17.13;;;20.00;97.80;;;;;;5073890;28;20170;-56
2022/04/26 11:35:34;;;;;;;23.90;16.27;;;20.10;96.70;;;;;;5074044;28;20039;-59
2022/04/26 11:38:08;;;;;;;24.02;17.95;;;19.60;96.20;;;;;;5074160;28;20404;-52
2022/04/26 11:40:41;;;;;;;21.83;15.90;;;18.60;96.00;;;;;;5074185;28;20193;-53
2022/04/26 11:43:09;;;;;;;23.73;16.42;;;18.20;95.90;;;;;;5073688;28;20024;-56
2022/04/26 11:45:36;;;;;;;;;;;;;;;;;;5074318;28;20020;-57
2022/04/26 11:48:02;;;;;;;25.67;18.25;;;17.70;96.40;;;;;;5074007;28;19927;-56
2022/04/26 11:50:30;;;;;;;22.50;16.80;;;16.70;99.90;;;;;;5073573;28;20023;-58
2022/04/26 11:53:10;;;;;;;26.85;16.73;;;16.50;99.10;;;;;;5074204;28;20074;-55
2022/04/26 11:55:37;;;;;;;24.35;17.98;;;16.30;99.70;;;;;;5073536;28;20369;-55
2022/04/26 11:58:06;;;;;;;24.63;17.73;;;;;;;;;;5094961;22;20016;-62
2022/04/26 12:00:33;;;;;;;25.95;16.75;;;16.20;99.90;;;;;;5029488;28;20467;-62
2022/04/26 12:02:59;;;;;;;32.03;18.80;;;15.90;99.90;;;;;;3973602;28;10000753;-60
2022/04/26 12:05:25;;;;;;;25.77;16.48;;;16.10;99.90;;;;;;5012934;28;20084;-61
2022/04/26 12:07:52;;;;;;;26.13;17.20;;;16.20;99.90;;;;;;5013572;28;20505;-62
2022/04/26 12:10:47;;;;;;;26.67;18.42;;;16.30;99.70;;;;;;4995206;28;20058;-61
2022/04/26 12:13:13;;;;;;;24.65;17.67;;;16.40;99.50;;;;;;4992306;28;20352;-60
2022/04/26 12:15:39;;;;;;;25.48;16.92;;;17.70;98.20;;;;;;4995348;28;20027;-58
2022/04/26 12:18:07;;;;;;;21.75;16.08;;;19.20;96.40;;;;;;4985192;28;20114;-60
2022/04/26 12:20:35;;;;;;;23.43;17.17;;;19.30;94.40;;;;;;4993654;28;20573;-59
2022/04/26 12:23:02;;;;;;;26.52;19.83;;;18.90;95.00;;;;;;4994044;28;20284;-60
2022/04/26 12:25:27;;;;;;;22.92;17.95;;;19.00;94.60;;;;;;4994090;28;20018;-58
2022/04/26 12:28:03;;;;;;;23.00;17.25;;;18.90;94.60;;;;;;4994327;28;20022;-62
2022/04/26 12:30:30;;;;;;;23.95;17.00;;;18.60;95.20;;;;;;4993733;28;20505;-60
2022/04/26 12:32:55;;;;;;;23.98;15.73;;;18.50;94.70;;;;;;4994487;28;20211;-61
2022/04/26 12:35:21;;;;;;;35.45;17.08;;;18.50;94.60;;;;;;4994551;28;20119;-60
2022/04/26 12:38:01;;;;;;;25.83;17.13;;;18.60;94.10;;;;;;4994948;28;20130;-57
2022/04/26 12:40:27;;;;;;;26.60;17.13;;;18.80;93.70;;;;;;4993757;28;20479;-60
2022/04/26 12:42:56;;;;;;;21.05;15.27;;;18.90;93.30;;;;;;4995191;28;20035;-58
2022/04/26 12:45:22;;;;;;;24.85;17.05;;;18.90;92.70;;;;;;4993593;28;20026;-60
2022/04/26 12:50:51;;;;;;;22.15;15.48;;;18.90;92.90;;;;;;4994663;28;20030;-60
2022/04/26 12:53:32;;;;;;;31.10;17.52;;;18.40;93.10;;;;;;4995212;28;20030;-60
2022/04/26 12:56:07;;;;;;;22.73;15.65;;;17.90;93.90;;;;;;4996752;28;20026;-60
2022/04/26 12:58:41;;;;;;;21.48;16.40;;;17.50;94.80;;;;;;4980446;28;20065;-60
2022/04/26 13:01:07;;;;;;;22.63;16.30;;;17.40;95.00;;;;;;4974843;28;20510;-60
2022/04/26 13:03:34;;;;;;;25.13;16.52;;;17.30;95.10;;;;;;4988632;28;20076;-60
2022/04/26 13:06:08;;;;;;;25.10;15.90;;;17.10;95.80;;;;;;4993176;28;20019;-61
2022/04/26 13:08:35;;;;;;;33.78;26.10;;;17.30;95.60;;;;;;4992975;28;20037;-62
2022/04/26 13:11:01;;;;;;;36.47;28.45;;;17.20;95.50;;;;;;4994437;28;20423;-62
2022/04/26 13:13:27;;;;;;;25.00;17.25;;;17.30;95.20;;;;;;4995254;28;20032;-62
2022/04/26 13:15:53;;;;;;;22.27;16.23;;;18.80;93.70;;;;;;4993946;28;20499;-60
2022/04/26 13:18:19;;;;;;;21.17;16.55;;;20.70;92.60;;;;;;4993887;28;20026;-60
2022/04/26 13:20:45;;;;;;;21.40;15.43;;;21.10;88.90;;;;;;4992826;28;20411;-61
2022/04/26 13:23:12;;;;;;;22.38;15.43;;;20.20;90.00;;;;;;4992647;28;20030;-61
2022/04/26 13:25:38;;;;;;;21.27;16.25;;;19.30;91.20;;;;;;5009108;28;20038;-62
2022/04/26 13:28:05;;;;;;;25.40;16.30;;;18.50;92.30;;;;;;4993293;28;20026;-59
2022/04/26 13:30:30;;;;;;;21.67;15.48;;;18.20;92.50;;;;;;4993897;28;20058;-61
2022/04/26 13:32:56;;;;;;;22.80;16.00;;;18.30;92.80;;;;;;4993945;28;20030;-63
2022/04/26 13:35:22;;;;;;;20.60;15.52;;;18.30;92.70;;;;;;4993778;28;20618;-62
2022/04/26 13:37:50;;;;;;;23.00;15.88;;;18.00;92.30;;;;;;4994166;28;20038;-61
2022/04/26 13:40:15;;;;;;;20.80;15.90;;;17.80;92.10;;;;;;4995296;28;20027;-62
2022/04/26 13:42:41;;;;;;;22.45;16.00;;;17.70;92.50;;;;;;4993072;28;20026;-62
2022/04/26 13:45:07;;;;;;;23.52;15.00;;;18.00;92.60;;;;;;5008590;28;20026;-62
2022/04/26 13:47:34;;;;;;;21.35;15.48;;;18.40;92.70;;;;;;4997742;28;20023;-62
2022/04/26 13:50:00;;;;;;;22.75;15.45;;;18.60;92.80;;;;;;4997292;28;20034;-62
2022/04/26 13:52:26;;;;;;;20.77;15.90;;;18.30;92.40;;;;;;4995616;28;20041;-60
2022/04/26 13:54:51;;;;;;;38.60;19.83;;;17.80;92.80;;;;;;4998022;28;20054;-58
2022/04/26 13:57:18;;;;;;;33.83;17.13;;;18.10;92.60;;;;;;4997848;28;20018;-60
2022/04/26 13:59:45;;;;;;;23.65;15.40;;;18.80;91.80;;;;;;4996900;28;20065;-60
2022/04/26 14:02:11;;;;;;;29.63;16.52;;;20.50;91.20;;;;;;4994618;28;20031;-59
2022/04/26 14:04:38;;;;;;;23.08;15.75;;;21.20;87.70;;;;;;4993090;28;20022;-60
2022/04/26 14:07:04;;;;;;;21.25;15.13;;;21.00;86.20;;;;;;4993006;28;20022;-57
2022/04/26 14:09:30;;;;;;;24.77;15.90;;;20.60;86.80;;;;;;4992314;28;20018;-57
2022/04/26 14:11:56;;;;;;;21.85;16.20;;;20.40;86.60;;;;;;4990985;28;20080;-57
2022/04/26 14:22:37;;;;;;;20.67;16.05;;;;;;;;;;4992144;28;20088;-64
2022/04/26 14:25:08;;;;;;;21.08;16.30;;;22.30;82.90;;;;;;4991714;28;20460;-63
2022/04/26 14:27:35;;;;;;;20.15;15.15;;;25.20;77.10;;;;;;4991719;28;20109;-63
2022/04/26 14:30:03;;;;;;;22.52;15.95;;;25.70;74.70;;;;;;4990812;28;20034;-62
2022/04/26 14:32:29;;;;;;;21.40;15.00;;;25.20;72.60;;;;;;4992311;28;20088;-62
2022/04/26 14:34:54;;;;;;;20.15;15.88;;;24.30;74.00;;;;;;4991375;28;20661;-62
2022/04/26 14:37:22;;;;;;;21.15;16.50;;;23.70;73.60;;;;;;4991601;28;20060;-62
2022/04/26 14:39:48;;;;;;;21.17;15.77;;;;;;;;;;5006761;28;20494;-61
2022/04/26 14:42:14;;;;;;;20.52;15.15;;;22.60;74.00;;;;;;4992080;28;20044;-61
2022/04/26 14:44:40;;;;;;;22.83;15.90;;;;;;;;;;4991086;28;20106;-62
2022/04/26 14:47:07;;;;;;;20.55;15.43;;;20.60;78.00;;;;;;4990084;28;20452;-61
2022/04/26 14:49:33;;;;;;;21.13;14.45;;;19.20;81.30;;;;;;4991808;28;20030;-62
2022/04/26 14:51:59;;;;;;;23.98;14.85;;;18.70;82.70;;;;;;4991717;28;20398;-63
2022/04/26 14:54:25;;;;;;;20.75;14.88;;;18.20;84.10;;;;;;4990707;28;20046;-64
2022/04/26 14:56:50;;;;;;;22.10;14.48;;;18.40;85.60;;;;;;4992005;28;20049;-62
2022/04/26 14:59:17;;;;;;;21.42;14.25;;;19.50;83.20;;;;;;4986252;28;158633;-63
2022/04/26 15:01:49;;;;;;;20.93;13.87;;;20.90;79.70;;;;;;4294382;28;10021604;-62
2022/04/26 15:04:15;;;;;;;20.00;14.32;;;21.50;78.70;;;;;;5006384;28;20639;-62
2022/04/26 15:06:41;;;;;;;19.85;14.18;;;22.20;77.10;;;;;;4994283;28;20034;-61
2022/04/26 15:16:37;;;;;;;20.23;14.43;;;23.10;74.20;;;;;;4992675;28;20065;-63
2022/04/26 15:17:21;;;;;;;20.83;14.00;;;23.90;72.10;;;;;;4993123;28;20073;-62
2022/04/26 15:19:48;;;;;;;20.45;14.00;;;24.80;70.50;;;;;;5008358;28;20643;-62
2022/04/26 15:22:14;;;;;;;20.33;13.13;;;25.20;69.00;;;;;;4992664;28;20474;-61
2022/04/26 15:24:40;;;;;;;21.42;14.32;;;24.90;69.00;;;;;;4993717;28;20057;-62
2022/04/26 15:27:06;;;;;;;20.02;13.70;;;25.30;67.90;;;;;;4994020;28;20073;-62
2022/04/26 15:29:32;;;;;;;19.35;13.23;;;25.30;66.60;;;;;;4993176;28;20034;-59
2022/04/26 15:31:57;;;;;;;19.40;13.73;;;24.40;68.10;;;;;;4993781;28;20084;-62
2022/04/26 15:34:26;;;;;;;18.95;13.60;;;23.90;68.90;;;;;;4993937;28;20018;-62
2022/04/26 15:36:52;;;;;;;21.52;13.60;;;23.90;67.80;;;;;;4993504;28;20712;-62
2022/04/26 15:39:17;;;;;;;20.42;13.77;;;24.10;68.30;;;;;;4991474;28;20049;-60
2022/04/26 15:41:43;;;;;;;20.25;13.43;;;23.40;69.20;;;;;;4992768;28;20709;-60
2022/04/26 15:44:08;;;;;;;20.40;13.13;;;24.20;67.40;;;;;;4993169;28;20114;-61
2022/04/26 15:46:34;;;;;;;22.67;14.05;;;24.70;66.20;;;;;;4992562;28;20450;-61
2022/04/26 15:49:02;;;;;;;20.30;13.57;;;24.00;66.40;;;;;;4992562;28;20587;-66
2022/04/26 15:51:27;;;;;;;23.58;15.25;;;23.30;67.30;;;;;;4993887;28;20023;-64
2022/04/26 15:53:53;;;;;;;21.10;15.25;;;22.80;68.00;;;;;;4991685;28;20173;-62
2022/04/26 15:56:19;;;;;;;20.08;14.52;;;22.50;68.90;;;;;;4993327;28;20414;-63
2022/04/26 15:58:44;;;;;;;19.77;13.43;;;22.40;69.20;;;;;;4992742;28;20046;-64
2022/04/26 16:01:11;;;;;;;19.00;13.40;;;22.60;69.20;;;;;;4992708;28;20061;-62
2022/04/26 16:03:38;;;;;;;19.80;13.65;;;23.00;69.10;;;;;;4992986;28;20045;-63
2022/04/26 16:06:04;;;;;;;18.83;13.15;;;23.30;67.90;;;;;;4993190;28;20619;-61
2022/04/26 16:08:35;;;;;;;20.40;13.52;;;23.40;68.10;;;;;;4992737;28;20192;-62
2022/04/26 16:22:00;;;;;;;20.48;13.30;;;23.80;65.00;;;;;;4992361;28;20135;-63
2022/04/26 16:24:25;;;;;;;21.40;13.63;;;23.80;65.30;;;;;;4992556;28;20497;-64
2022/04/26 16:26:51;;;;;;;18.65;13.07;;;24.30;64.90;;;;;;4992886;28;20105;-63
2022/04/26 16:29:18;;;;;;;20.88;12.93;;;24.10;64.70;;;;;;4992244;28;20069;-62
2022/04/26 16:31:44;;;;;;;18.30;12.85;;;23.90;64.30;;;;;;4992281;28;20033;-62
2022/04/26 16:34:09;;;;;;;21.08;13.40;;;23.10;65.50;;;;;;4992721;28;20048;-63
2022/04/26 16:36:36;;;;;;;20.08;13.27;;;22.50;67.00;;;;;;4992501;28;20060;-63
2022/04/26 16:39:02;;;;;;;20.52;13.15;;;23.40;67.60;;;;;;4992459;28;20479;-62
2022/04/26 16:41:28;;;;;;;20.85;13.90;;;23.70;66.10;;;;;;4993001;28;20092;-61
2022/04/26 16:43:54;;;;;;;22.42;14.07;;;23.80;65.60;;;;;;4992480;28;20038;-63
2022/04/26 16:46:22;;;;;;;19.80;13.43;;;24.10;65.00;;;;;;4993165;28;20054;-63
2022/04/26 16:48:48;;;;;;;21.23;13.00;;;23.90;64.70;;;;;;4992246;28;20023;-62
2022/04/26 16:51:15;;;;;;;20.92;13.48;;;24.20;63.60;;;;;;4992249;28;20130;-63
2022/04/26 16:53:42;;;;;;;35.95;26.02;;;24.40;63.80;;;;;;4990754;28;20041;-63
2022/04/26 16:56:08;;;;;;;43.80;38.87;;;24.20;63.70;;;;;;4992581;28;20025;-59
2022/04/26 16:58:34;;;;;;;20.50;13.77;;;23.50;64.80;;;;;;4992178;28;20030;-56